createdAt,value
2018-06-13T00:00:39.457Z,90.00
2018-06-13T00:01:39.442Z,89.95
2018-06-13T00:02:39.424Z,90.23
2018-06-13T00:03:39.420Z,89.76
2018-06-13T00:04:39.400Z,90.05
2018-06-13T00:05:39.380Z,90.05
2018-06-13T00:06:39.371Z,90.33
2018-06-13T00:07:39.356Z,90.62
2018-06-13T00:08:39.341Z,90.05
2018-06-13T00:09:39.323Z,90.62
2018-06-13T00:10:39.320Z,90.62
2018-06-13T00:11:39.303Z,90.62
2018-06-13T00:12:39.285Z,90.91
2018-06-13T00:13:39.273Z,90.62
2018-06-13T00:14:39.256Z,90.81
2018-06-13T00:15:39.248Z,91.00
2018-06-13T00:16:39.232Z,91.10
2018-06-13T00:17:39.212Z,91.49
2018-06-13T00:18:39.200Z,91.10
2018-06-13T00:19:39.194Z,91.19
2018-06-13T00:20:39.174Z,91.39
2018-06-13T00:21:39.161Z,91.19
2018-06-13T00:22:39.145Z,91.77
2018-06-13T00:23:39.133Z,92.73
2018-06-13T00:24:39.116Z,92.92
2018-06-13T00:25:39.098Z,92.54
2018-06-13T00:26:39.088Z,92.63
2018-06-13T00:27:39.088Z,92.54
2018-06-13T00:28:39.066Z,92.06
2018-06-13T00:29:39.048Z,92.35
2018-06-13T00:30:39.034Z,92.54
2018-06-13T00:31:39.013Z,92.35
2018-06-13T00:32:39.069Z,92.44
2018-06-13T00:33:38.989Z,92.44
2018-06-13T00:34:38.979Z,92.63
2018-06-13T00:35:38.957Z,92.54
2018-06-13T00:36:38.950Z,92.35
2018-06-13T00:37:38.935Z,92.44
2018-06-13T00:38:38.922Z,91.96
2018-06-13T00:39:38.912Z,92.63
2018-06-13T00:40:38.890Z,92.92
2018-06-13T00:41:38.882Z,92.82
2018-06-13T00:42:38.864Z,92.73
2018-06-13T00:43:38.854Z,93.02
2018-06-13T00:44:38.842Z,92.73
2018-06-13T00:45:38.817Z,93.11
2018-06-13T00:46:38.816Z,93.11
2018-06-13T00:47:38.791Z,93.11
2018-06-13T00:48:38.781Z,93.11
2018-06-13T00:49:38.762Z,93.11
2018-06-13T00:50:38.749Z,92.63
2018-06-13T00:51:38.736Z,92.44
2018-06-13T00:52:38.721Z,93.21
2018-06-13T00:53:38.705Z,93.40
2018-06-13T00:54:38.689Z,93.02
2018-06-13T00:55:38.676Z,94.17
2018-06-13T00:56:38.663Z,93.98
2018-06-13T00:57:38.648Z,93.88
2018-06-13T00:58:38.636Z,93.78
2018-06-13T00:59:38.616Z,93.21
2018-06-13T01:00:38.608Z,93.21
2018-06-13T01:01:38.592Z,93.02
2018-06-13T01:02:38.582Z,93.21
2018-06-13T01:03:38.573Z,92.54
2018-06-13T01:04:38.559Z,92.63
2018-06-13T01:05:38.539Z,92.73
2018-06-13T01:06:38.531Z,92.54
2018-06-13T01:07:38.508Z,93.02
2018-06-13T01:08:38.494Z,93.11
2018-06-13T01:09:38.475Z,93.02
2018-06-13T01:10:38.473Z,93.11
2018-06-13T01:11:38.451Z,92.54
2018-06-13T01:12:38.435Z,92.44
2018-06-13T01:13:38.421Z,92.82
2018-06-13T01:14:38.409Z,92.73
2018-06-13T01:15:38.405Z,93.21
2018-06-13T01:16:38.386Z,92.73
2018-06-13T01:17:38.520Z,93.30
2018-06-13T01:18:38.364Z,93.11
2018-06-13T01:19:38.337Z,92.35
2018-06-13T01:20:38.331Z,93.21
2018-06-13T01:21:38.314Z,93.02
2018-06-13T01:22:38.304Z,92.44
2018-06-13T01:23:38.431Z,92.92
2018-06-13T01:24:38.269Z,92.73
2018-06-13T01:25:38.257Z,92.92
2018-06-13T01:26:38.237Z,92.44
2018-06-13T01:27:38.225Z,92.44
2018-06-13T01:28:38.210Z,92.92
2018-06-13T01:29:38.245Z,92.44
2018-06-13T01:30:38.183Z,92.73
2018-06-13T01:31:38.220Z,92.63
2018-06-13T01:32:38.149Z,92.54
2018-06-13T01:33:38.192Z,93.02
2018-06-13T01:34:38.118Z,92.73
2018-06-13T01:35:38.112Z,93.02
2018-06-13T01:36:38.099Z,92.35
2018-06-13T01:37:38.077Z,92.35
2018-06-13T01:38:38.066Z,92.63
2018-06-13T01:39:38.050Z,92.63
2018-06-13T01:40:38.037Z,93.21
2018-06-13T01:41:38.018Z,92.54
2018-06-13T01:42:38.011Z,92.54
2018-06-13T01:43:38.002Z,92.44
2018-06-13T01:44:37.992Z,92.54
2018-06-13T01:45:37.963Z,92.54
2018-06-13T01:46:37.960Z,93.11
2018-06-13T01:47:37.941Z,92.82
2018-06-13T01:48:37.927Z,92.68
2018-06-13T01:49:37.912Z,92.82
2018-06-13T01:50:37.889Z,93.11
2018-06-13T01:51:37.886Z,92.97
2018-06-13T01:52:37.867Z,93.21
2018-06-13T01:53:37.854Z,93.49
2018-06-13T01:54:37.840Z,92.97
2018-06-13T01:55:37.832Z,93.21
2018-06-13T01:56:37.826Z,93.21
2018-06-13T01:57:37.803Z,92.44
2018-06-13T01:58:37.787Z,92.63
2018-06-13T01:59:37.771Z,92.63
2018-06-13T02:00:37.748Z,92.82
2018-06-13T02:01:37.739Z,93.02
2018-06-13T02:02:37.736Z,92.54
2018-06-13T02:03:37.707Z,92.15
2018-06-13T02:04:37.700Z,92.54
2018-06-13T02:05:37.685Z,92.82
2018-06-13T02:06:37.669Z,92.63
2018-06-13T02:07:37.659Z,92.44
2018-06-13T02:08:37.637Z,93.02
2018-06-13T02:09:37.626Z,92.92
2018-06-13T02:10:37.611Z,93.02
2018-06-13T02:11:37.597Z,92.82
2018-06-13T02:12:37.582Z,93.21
2018-06-13T02:13:37.566Z,93.02
2018-06-13T02:14:37.554Z,92.92
2018-06-13T02:15:37.538Z,93.21
2018-06-13T02:16:37.534Z,92.73
2018-06-13T02:17:37.511Z,92.54
2018-06-13T02:18:37.501Z,93.02
2018-06-13T02:19:37.477Z,93.02
2018-06-13T02:20:37.466Z,92.82
2018-06-13T02:21:37.468Z,92.44
2018-06-13T02:22:37.437Z,92.63
2018-06-13T02:23:37.424Z,93.02
2018-06-13T02:24:37.412Z,93.21
2018-06-13T02:25:37.390Z,93.21
2018-06-13T02:26:37.389Z,93.40
2018-06-13T02:27:37.366Z,93.83
2018-06-13T02:28:37.354Z,93.83
2018-06-13T02:29:37.337Z,93.64
2018-06-13T02:30:37.334Z,93.45
2018-06-13T02:31:37.313Z,94.02
2018-06-13T02:32:37.296Z,93.74
2018-06-13T02:33:37.277Z,94.12
2018-06-13T02:34:37.264Z,93.83
2018-06-13T02:35:37.263Z,93.74
2018-06-13T02:36:37.240Z,93.54
2018-06-13T02:37:37.221Z,94.02
2018-06-13T02:38:37.211Z,93.93
2018-06-13T02:39:37.202Z,93.54
2018-06-13T02:40:37.183Z,93.11
2018-06-13T02:41:37.171Z,92.15
2018-06-13T02:42:37.152Z,91.63
2018-06-13T02:43:37.142Z,92.25
2018-06-13T02:44:37.126Z,91.58
2018-06-13T02:45:37.109Z,92.06
2018-06-13T02:46:37.100Z,92.15
2018-06-13T02:47:37.080Z,92.11
2018-06-13T02:48:37.065Z,92.68
2018-06-13T02:49:37.046Z,93.02
2018-06-13T02:50:37.036Z,92.58
2018-06-13T02:51:37.027Z,93.16
2018-06-13T02:52:37.008Z,92.78
2018-06-13T02:53:36.995Z,92.78
2018-06-13T02:54:36.992Z,93.16
2018-06-13T02:55:36.963Z,93.11
2018-06-13T02:56:36.957Z,93.21
2018-06-13T02:57:36.934Z,92.82
2018-06-13T02:58:37.037Z,92.06
2018-06-13T02:59:36.912Z,92.15
2018-06-13T03:00:36.894Z,92.15
2018-06-13T03:01:36.876Z,92.01
2018-06-13T03:02:36.966Z,92.73
2018-06-13T03:03:36.852Z,92.15
2018-06-13T03:04:36.851Z,92.06
2018-06-13T03:05:36.823Z,92.63
2018-06-13T03:06:36.807Z,92.06
2018-06-13T03:07:36.799Z,91.96
2018-06-13T03:08:36.932Z,92.44
2018-06-13T03:09:36.772Z,92.06
2018-06-13T03:10:36.948Z,92.87
2018-06-13T03:11:36.743Z,92.63
2018-06-13T03:12:36.726Z,92.73
2018-06-13T03:13:36.708Z,92.82
2018-06-13T03:14:36.746Z,93.02
2018-06-13T03:15:36.679Z,92.92
2018-06-13T03:16:36.672Z,93.02
2018-06-13T03:17:36.643Z,92.82
2018-06-13T03:18:36.634Z,93.02
2018-06-13T03:19:36.621Z,93.11
2018-06-13T03:20:36.601Z,92.97
2018-06-13T03:21:36.591Z,93.11
2018-06-13T03:22:36.577Z,93.40
2018-06-13T03:23:36.568Z,93.21
2018-06-13T03:24:36.551Z,93.02
2018-06-13T03:25:36.541Z,93.11
2018-06-13T03:26:36.521Z,93.21
2018-06-13T03:27:36.508Z,93.21
2018-06-13T03:28:36.486Z,92.92
2018-06-13T03:29:36.477Z,93.30
2018-06-13T03:30:36.462Z,93.11
2018-06-13T03:31:36.453Z,93.40
2018-06-13T03:32:36.433Z,94.35
2018-06-13T03:33:36.422Z,94.07
2018-06-13T03:34:36.411Z,94.26
2018-06-13T03:35:36.389Z,94.17
2018-06-13T03:36:36.382Z,93.88
2018-06-13T03:37:36.357Z,93.59
2018-06-13T03:38:36.350Z,93.78
2018-06-13T03:39:36.337Z,94.26
2018-06-13T03:40:36.322Z,94.45
2018-06-13T03:41:36.305Z,94.50
2018-06-13T03:42:36.296Z,94.69
2018-06-13T03:43:36.278Z,94.98
2018-06-13T03:44:36.261Z,95.65
2018-06-13T03:45:36.247Z,95.36
2018-06-13T03:46:36.234Z,95.75
2018-06-13T03:47:36.221Z,95.75
2018-06-13T03:48:36.205Z,95.98
2018-06-13T03:49:36.189Z,95.56
2018-06-13T03:50:36.177Z,95.07
2018-06-13T03:51:36.168Z,95.70
2018-06-13T03:52:36.151Z,95.12
2018-06-13T03:53:36.131Z,95.51
2018-06-13T03:54:36.119Z,95.70
2018-06-13T03:55:36.113Z,96.08
2018-06-13T03:56:36.088Z,95.65
2018-06-13T03:57:36.077Z,95.65
2018-06-13T03:58:36.064Z,95.70
2018-06-13T03:59:36.046Z,95.36
2018-06-13T04:00:36.034Z,95.51
2018-06-13T04:01:36.017Z,95.65
2018-06-13T04:02:36.001Z,95.56
2018-06-13T04:03:35.992Z,95.94
2018-06-13T04:04:35.973Z,95.60
2018-06-13T04:05:35.964Z,95.22
2018-06-13T04:06:35.944Z,94.93
2018-06-13T04:07:35.931Z,94.93
2018-06-13T04:08:35.922Z,95.03
2018-06-13T04:09:35.902Z,94.84
2018-06-13T04:10:35.885Z,94.74
2018-06-13T04:11:35.879Z,94.74
2018-06-13T04:12:35.861Z,94.55
2018-06-13T04:13:35.869Z,94.74
2018-06-13T04:14:35.831Z,94.84
2018-06-13T04:15:35.813Z,94.64
2018-06-13T04:16:35.803Z,95.03
2018-06-13T04:17:35.792Z,94.35
2018-06-13T04:18:35.773Z,95.12
2018-06-13T04:19:35.758Z,94.89
2018-06-13T04:20:35.746Z,95.12
2018-06-13T04:21:35.736Z,95.70
2018-06-13T04:22:35.719Z,95.12
2018-06-13T04:23:35.700Z,95.51
2018-06-13T04:24:35.689Z,95.84
2018-06-13T04:25:35.669Z,94.74
2018-06-13T04:26:35.658Z,94.89
2018-06-13T04:27:35.647Z,94.69
2018-06-13T04:28:35.631Z,94.69
2018-06-13T04:29:35.616Z,95.17
2018-06-13T04:30:35.602Z,94.79
2018-06-13T04:31:35.587Z,95.31
2018-06-13T04:32:35.598Z,94.98
2018-06-13T04:33:35.562Z,94.98
2018-06-13T04:34:35.545Z,94.74
2018-06-13T04:35:35.584Z,94.84
2018-06-13T04:36:35.520Z,95.17
2018-06-13T04:37:35.511Z,95.07
2018-06-13T04:38:35.491Z,94.84
2018-06-13T04:39:35.478Z,95.36
2018-06-13T04:40:35.514Z,95.17
2018-06-13T04:41:35.452Z,95.27
2018-06-13T04:42:35.430Z,95.94
2018-06-13T04:43:35.423Z,94.50
2018-06-13T04:44:35.400Z,94.69
2018-06-13T04:45:35.388Z,94.79
2018-06-13T04:46:35.372Z,95.07
2018-06-13T04:47:35.363Z,95.07
2018-06-13T04:48:35.340Z,95.94
2018-06-13T04:49:35.382Z,95.84
2018-06-13T04:50:35.317Z,96.03
2018-06-13T04:51:35.390Z,95.56
2018-06-13T04:52:35.291Z,96.13
2018-06-13T04:53:35.269Z,96.32
2018-06-13T04:54:35.260Z,96.13
2018-06-13T04:55:35.240Z,96.22
2018-06-13T04:56:35.232Z,97.23
2018-06-13T04:57:35.317Z,97.28
2018-06-13T04:58:35.204Z,97.18
2018-06-13T04:59:35.209Z,96.61
2018-06-13T05:00:35.170Z,97.56
2018-06-13T05:01:35.260Z,97.66
2018-06-13T05:02:35.148Z,97.56
2018-06-13T05:03:35.122Z,96.80
2018-06-13T05:04:35.120Z,97.28
2018-06-13T05:05:35.103Z,97.28
2018-06-13T05:06:35.091Z,97.28
2018-06-13T05:07:35.068Z,96.99
2018-06-13T05:08:35.061Z,96.18
2018-06-13T05:09:35.045Z,96.32
2018-06-13T05:10:35.042Z,96.66
2018-06-13T05:11:35.012Z,96.03
2018-06-13T05:12:34.997Z,96.13
2018-06-13T05:13:34.987Z,96.56
2018-06-13T05:14:34.971Z,96.84
2018-06-13T05:15:34.965Z,96.47
2018-06-13T05:16:34.943Z,96.51
2018-06-13T05:17:34.932Z,96.56
2018-06-13T05:18:34.917Z,96.08
2018-06-13T05:19:34.897Z,95.79
2018-06-13T05:20:34.882Z,94.84
2018-06-13T05:21:34.874Z,94.45
2018-06-13T05:22:34.858Z,93.98
2018-06-13T05:23:34.851Z,93.88
2018-06-13T05:24:34.832Z,93.59
2018-06-13T05:25:34.816Z,93.21
2018-06-13T05:26:34.797Z,93.11
2018-06-13T05:27:34.791Z,91.49
2018-06-13T05:28:34.837Z,91.72
2018-06-13T05:29:34.755Z,91.05
2018-06-13T05:30:34.752Z,91.91
2018-06-13T05:31:34.730Z,92.30
2018-06-13T05:32:34.726Z,91.24
2018-06-13T05:33:34.704Z,91.34
2018-06-13T05:34:34.693Z,91.82
2018-06-13T05:35:34.675Z,91.91
2018-06-13T05:36:34.663Z,92.01
2018-06-13T05:37:34.652Z,91.82
2018-06-13T05:38:34.633Z,91.63
2018-06-13T05:39:34.621Z,91.24
2018-06-13T05:40:34.605Z,91.34
2018-06-13T05:41:34.596Z,91.14
2018-06-13T05:42:34.582Z,90.47
2018-06-13T05:43:34.566Z,90.09
2018-06-13T05:44:34.554Z,89.51
2018-06-13T05:45:34.543Z,88.94
2018-06-13T05:46:34.529Z,89.13
2018-06-13T05:47:34.512Z,88.65
2018-06-13T05:48:34.496Z,88.94
2018-06-13T05:49:34.480Z,88.65
2018-06-13T05:50:34.471Z,89.71
2018-06-13T05:51:34.462Z,89.71
2018-06-13T05:52:34.445Z,89.42
2018-06-13T05:53:34.430Z,90.19
2018-06-13T05:54:34.419Z,89.18
2018-06-13T05:55:34.410Z,89.18
2018-06-13T05:56:34.388Z,89.13
2018-06-13T05:57:34.382Z,89.71
2018-06-13T05:58:34.360Z,90.04
2018-06-13T05:59:34.347Z,89.80
2018-06-13T06:00:34.337Z,90.42
2018-06-13T06:01:34.321Z,90.28
2018-06-13T06:02:34.318Z,91.05
2018-06-13T06:03:34.309Z,92.15
2018-06-13T06:04:34.276Z,91.24
2018-06-13T06:05:34.267Z,91.34
2018-06-13T06:06:34.258Z,91.09
2018-06-13T06:07:34.243Z,90.47
2018-06-13T06:08:34.225Z,90.38
2018-06-13T06:09:34.212Z,90.86
2018-06-13T06:10:34.284Z,91.24
2018-06-13T06:11:34.187Z,91.05
2018-06-13T06:12:34.178Z,91.05
2018-06-13T06:13:34.162Z,90.38
2018-06-13T06:14:34.150Z,90.28
2018-06-13T06:15:34.127Z,90.67
2018-06-13T06:16:34.200Z,90.86
2018-06-13T06:17:34.104Z,90.86
2018-06-13T06:18:34.092Z,91.43
2018-06-13T06:19:34.082Z,91.05
2018-06-13T06:20:34.072Z,91.34
2018-06-13T06:21:34.048Z,91.14
2018-06-13T06:22:34.034Z,91.24
2018-06-13T06:23:34.055Z,91.05
2018-06-13T06:24:34.064Z,91.38
2018-06-13T06:25:33.997Z,91.09
2018-06-13T06:26:34.020Z,90.90
2018-06-13T06:27:33.970Z,90.61
2018-06-13T06:28:33.987Z,89.42
2018-06-13T06:29:33.942Z,89.71
2018-06-13T06:30:33.978Z,89.56
2018-06-13T06:31:33.911Z,89.65
2018-06-13T06:32:33.999Z,89.27
2018-06-13T06:33:33.892Z,89.13
2018-06-13T06:34:33.974Z,89.37
2018-06-13T06:35:33.854Z,90.04
2018-06-13T06:36:33.952Z,88.60
2018-06-13T06:37:33.832Z,88.70
2018-06-13T06:38:33.819Z,88.98
2018-06-13T06:39:33.811Z,88.51
2018-06-13T06:40:33.888Z,88.41
2018-06-13T06:41:33.779Z,88.22
2018-06-13T06:42:33.765Z,88.02
2018-06-13T06:43:33.754Z,87.64
2018-06-13T06:44:33.787Z,87.16
2018-06-13T06:45:33.732Z,86.97
2018-06-13T06:46:33.721Z,87.26
2018-06-13T06:47:33.705Z,87.74
2018-06-13T06:48:33.692Z,88.22
2018-06-13T06:49:33.672Z,88.89
2018-06-13T06:50:33.659Z,88.41
2018-06-13T06:51:33.648Z,88.31
2018-06-13T06:52:33.625Z,87.74
2018-06-13T06:53:33.618Z,86.78
2018-06-13T06:54:33.606Z,87.07
2018-06-13T06:55:33.626Z,87.60
2018-06-13T06:56:33.577Z,86.30
2018-06-13T06:57:33.568Z,86.78
2018-06-13T06:58:33.552Z,85.82
2018-06-13T06:59:33.545Z,86.30
2018-06-13T07:00:33.533Z,85.38
2018-06-13T07:01:33.517Z,85.00
2018-06-13T07:02:33.501Z,84.61
2018-06-13T07:03:33.488Z,84.23
2018-06-13T07:04:33.472Z,84.04
2018-06-13T07:05:33.462Z,84.04
2018-06-13T07:06:33.449Z,83.94
2018-06-13T07:07:33.433Z,83.94
2018-06-13T07:08:33.424Z,82.51
2018-06-13T07:09:33.408Z,82.51
2018-06-13T07:10:33.393Z,82.54
2018-06-13T07:11:33.382Z,81.30
2018-06-13T07:12:33.372Z,81.87
2018-06-13T07:13:33.356Z,81.01
2018-06-13T07:14:33.337Z,80.91
2018-06-13T07:15:33.328Z,81.40
2018-06-13T07:16:33.315Z,81.30
2018-06-13T07:17:33.301Z,82.45
2018-06-13T07:18:33.292Z,82.07
2018-06-13T07:19:33.282Z,81.30
2018-06-13T07:20:33.265Z,81.30
2018-06-13T07:21:33.253Z,80.24
2018-06-13T07:22:33.243Z,80.15
2018-06-13T07:23:33.230Z,80.05
2018-06-13T07:24:33.211Z,80.24
2018-06-13T07:25:33.210Z,81.30
2018-06-13T07:26:33.191Z,81.40
2018-06-13T07:27:33.176Z,81.05
2018-06-13T07:28:33.166Z,80.57
2018-06-13T07:29:33.154Z,79.67
2018-06-13T07:30:33.141Z,79.28
2018-06-13T07:31:33.125Z,80.15
2018-06-13T07:32:33.111Z,79.28
2018-06-13T07:33:33.141Z,79.09
2018-06-13T07:34:33.086Z,77.75
2018-06-13T07:35:33.083Z,78.52
2018-06-13T07:36:33.063Z,78.90
2018-06-13T07:37:33.047Z,79.57
2018-06-13T07:38:33.037Z,79.22
2018-06-13T07:39:33.027Z,79.22
2018-06-13T07:40:33.022Z,78.94
2018-06-13T07:41:33.017Z,78.08
2018-06-13T07:42:32.993Z,78.65
2018-06-13T07:43:32.981Z,78.17
2018-06-13T07:44:32.971Z,78.84
2018-06-13T07:45:32.951Z,78.27
2018-06-13T07:46:32.942Z,78.27
2018-06-13T07:47:32.928Z,77.65
2018-06-13T07:48:32.922Z,77.36
2018-06-13T07:49:32.901Z,77.94
2018-06-13T07:50:32.922Z,78.99
2018-06-13T07:51:32.878Z,78.03
2018-06-13T07:52:32.869Z,77.65
2018-06-13T07:53:32.856Z,77.75
2018-06-13T07:54:32.842Z,78.23
2018-06-13T07:55:32.932Z,78.90
2018-06-13T07:56:32.822Z,79.09
2018-06-13T07:57:32.858Z,79.28
2018-06-13T07:58:32.795Z,79.47
2018-06-13T07:59:32.784Z,79.47
2018-06-13T08:00:32.772Z,78.80
2018-06-13T08:01:32.756Z,79.82
2018-06-13T08:02:32.741Z,80.97
2018-06-13T08:03:32.743Z,80.30
2018-06-13T08:04:32.717Z,81.54
2018-06-13T08:05:32.711Z,81.16
2018-06-13T08:06:32.698Z,80.40
2018-06-13T08:07:32.679Z,81.20
2018-06-13T08:08:32.791Z,80.24
2018-06-13T08:09:32.656Z,80.43
2018-06-13T08:10:32.637Z,79.96
2018-06-13T08:11:32.627Z,79.57
2018-06-13T08:12:32.617Z,79.19
2018-06-13T08:13:32.611Z,79.28
2018-06-13T08:14:32.597Z,79.13
2018-06-13T08:15:32.582Z,79.19
2018-06-13T08:16:32.575Z,78.99
2018-06-13T08:17:32.559Z,79.86
2018-06-13T08:18:32.544Z,79.63
2018-06-13T08:19:32.531Z,80.40
2018-06-13T08:20:32.528Z,81.54
2018-06-13T08:21:32.510Z,81.84
2018-06-13T08:22:32.503Z,81.84
2018-06-13T08:23:32.479Z,81.54
2018-06-13T08:24:32.468Z,81.84
2018-06-13T08:25:32.463Z,82.79
2018-06-13T08:26:32.437Z,83.37
2018-06-13T08:27:32.424Z,83.04
2018-06-13T08:28:32.418Z,83.42
2018-06-13T08:29:32.405Z,82.85
2018-06-13T08:30:32.392Z,83.94
2018-06-13T08:31:32.379Z,83.18
2018-06-13T08:32:32.370Z,83.18
2018-06-13T08:33:32.347Z,83.04
2018-06-13T08:34:32.341Z,83.23
2018-06-13T08:35:32.333Z,83.04
2018-06-13T08:36:32.312Z,83.33
2018-06-13T08:37:32.295Z,83.04
2018-06-13T08:38:32.286Z,83.04
2018-06-13T08:39:32.274Z,83.61
2018-06-13T08:40:32.289Z,82.85
2018-06-13T08:41:32.251Z,84.28
2018-06-13T08:42:32.232Z,82.94
2018-06-13T08:43:32.220Z,83.14
2018-06-13T08:44:32.209Z,83.52
2018-06-13T08:45:32.191Z,83.08
2018-06-13T08:46:32.201Z,83.18
2018-06-13T08:47:32.165Z,83.47
2018-06-13T08:48:32.193Z,83.08
2018-06-13T08:49:32.141Z,82.79
2018-06-13T08:50:32.126Z,83.18
2018-06-13T08:51:32.112Z,82.12
2018-06-13T08:52:32.107Z,82.03
2018-06-13T08:53:32.092Z,82.03
2018-06-13T08:54:32.078Z,82.12
2018-06-13T08:55:32.065Z,80.87
2018-06-13T08:56:32.047Z,81.74
2018-06-13T08:57:32.038Z,81.74
2018-06-13T08:58:32.029Z,81.35
2018-06-13T08:59:32.013Z,81.26
2018-06-13T09:00:31.997Z,80.97
2018-06-13T09:01:31.994Z,80.97
2018-06-13T09:02:31.968Z,80.97
2018-06-13T09:03:31.961Z,80.68
2018-06-13T09:04:31.949Z,81.30
2018-06-13T09:05:31.932Z,81.07
2018-06-13T09:06:31.924Z,81.35
2018-06-13T09:07:31.899Z,81.59
2018-06-13T09:08:31.895Z,81.87
2018-06-13T09:09:31.882Z,82.16
2018-06-13T09:10:31.869Z,82.35
2018-06-13T09:11:31.860Z,80.24
2018-06-13T09:12:31.852Z,79.96
2018-06-13T09:13:31.826Z,78.90
2018-06-13T09:14:31.817Z,78.65
2018-06-13T09:15:31.820Z,78.94
2018-06-13T09:16:31.791Z,77.69
2018-06-13T09:17:31.779Z,76.39
2018-06-13T09:18:31.763Z,73.02
2018-06-13T09:19:31.754Z,72.44
2018-06-13T09:20:31.744Z,71.39
2018-06-13T09:21:31.728Z,71.29
2018-06-13T09:22:31.756Z,71.23
2018-06-13T09:23:31.713Z,72.86
2018-06-13T09:24:31.693Z,72.00
2018-06-13T09:25:31.677Z,70.94
2018-06-13T09:26:31.670Z,71.42
2018-06-13T09:27:31.660Z,68.73
2018-06-13T09:28:31.642Z,69.12
2018-06-13T09:29:31.633Z,67.86
2018-06-13T09:30:31.630Z,68.06
2018-06-13T09:31:31.617Z,67.80
2018-06-13T09:32:31.602Z,66.94
2018-06-13T09:33:31.588Z,67.10
2018-06-13T09:34:31.584Z,66.52
2018-06-13T09:35:31.562Z,66.23
2018-06-13T09:36:31.547Z,67.00
2018-06-13T09:37:31.583Z,67.10
2018-06-13T09:38:31.527Z,67.77
2018-06-13T09:39:31.521Z,65.46
2018-06-13T09:40:31.504Z,65.66
2018-06-13T09:41:31.494Z,66.46
2018-06-13T09:42:31.483Z,66.27
2018-06-13T09:43:31.476Z,64.86
2018-06-13T09:44:31.473Z,62.93
2018-06-13T09:45:31.453Z,62.35
2018-06-13T09:46:31.440Z,62.38
2018-06-13T09:47:31.430Z,61.80
2018-06-13T09:48:31.422Z,61.42
2018-06-13T09:49:31.411Z,61.13
2018-06-13T09:50:31.395Z,60.68
2018-06-13T09:51:31.382Z,61.42
2018-06-13T09:52:31.376Z,59.78
2018-06-13T09:53:31.360Z,62.09
2018-06-13T09:54:31.351Z,62.38
2018-06-13T09:55:31.338Z,62.77
2018-06-13T09:56:31.340Z,61.61
2018-06-13T09:57:31.322Z,60.42
2018-06-13T09:58:31.312Z,62.45
2018-06-13T09:59:31.302Z,61.77
2018-06-13T10:00:31.290Z,62.06
2018-06-13T10:01:31.283Z,62.35
2018-06-13T10:02:31.278Z,63.22
2018-06-13T10:03:31.266Z,63.41
2018-06-13T10:04:31.304Z,63.70
2018-06-13T10:05:31.338Z,63.22
2018-06-13T10:06:31.227Z,63.99
2018-06-13T10:07:31.368Z,63.22
2018-06-13T10:08:31.208Z,64.86
2018-06-13T10:09:31.299Z,64.08
2018-06-13T10:10:31.186Z,63.12
2018-06-13T10:11:31.175Z,63.41
2018-06-13T10:12:31.163Z,62.83
2018-06-13T10:13:31.229Z,62.45
2018-06-13T10:14:31.141Z,62.93
2018-06-13T10:15:31.182Z,63.02
2018-06-13T10:16:31.128Z,62.16
2018-06-13T10:17:31.210Z,62.13
2018-06-13T10:18:31.102Z,63.18
2018-06-13T10:19:31.139Z,63.89
2018-06-13T10:20:31.079Z,63.12
2018-06-13T10:21:31.071Z,62.93
2018-06-13T10:22:31.076Z,63.02
2018-06-13T10:23:31.047Z,61.61
2018-06-13T10:24:31.028Z,62.35
2018-06-13T10:25:31.053Z,62.54
2018-06-13T10:26:31.050Z,61.77
2018-06-13T10:27:31.002Z,60.42
2018-06-13T10:28:30.992Z,62.74
2018-06-13T10:29:30.972Z,63.64
2018-06-13T10:30:30.959Z,61.90
2018-06-13T10:31:30.971Z,62.83
2018-06-13T10:32:30.948Z,62.19
2018-06-13T10:33:30.943Z,61.10
2018-06-13T10:34:30.922Z,60.27
2018-06-13T10:35:30.909Z,60.52
2018-06-13T10:36:30.900Z,60.14
2018-06-13T10:37:30.894Z,60.81
2018-06-13T10:38:30.874Z,60.72
2018-06-13T10:39:30.877Z,60.81
2018-06-13T10:40:30.860Z,61.49
2018-06-13T10:41:30.846Z,62.41
2018-06-13T10:42:30.837Z,61.65
2018-06-13T10:43:30.830Z,62.06
2018-06-13T10:44:30.814Z,61.97
2018-06-13T10:45:30.801Z,62.16
2018-06-13T10:46:30.789Z,62.16
2018-06-13T10:47:30.780Z,62.26
2018-06-13T10:48:30.783Z,62.74
2018-06-13T10:49:30.760Z,62.06
2018-06-13T10:50:30.745Z,62.93
2018-06-13T10:51:30.740Z,62.48
2018-06-13T10:52:30.725Z,61.87
2018-06-13T10:53:30.716Z,62.54
2018-06-13T10:54:30.714Z,61.97
2018-06-13T10:55:30.728Z,62.64
2018-06-13T10:56:30.686Z,62.16
2018-06-13T10:57:30.671Z,61.77
2018-06-13T10:58:30.660Z,61.39
2018-06-13T10:59:30.649Z,61.77
2018-06-13T11:00:30.642Z,61.87
2018-06-13T11:01:30.628Z,62.26
2018-06-13T11:02:30.616Z,61.29
2018-06-13T11:03:30.610Z,62.06
2018-06-13T11:04:30.597Z,62.74
2018-06-13T11:05:30.589Z,61.87
2018-06-13T11:06:30.576Z,60.49
2018-06-13T11:07:30.562Z,60.61
2018-06-13T11:08:30.552Z,61.10
2018-06-13T11:09:30.539Z,60.71
2018-06-13T11:10:30.529Z,59.17
2018-06-13T11:11:30.516Z,59.27
2018-06-13T11:12:30.507Z,59.91
2018-06-13T11:13:30.501Z,60.13
2018-06-13T11:14:30.490Z,60.30
2018-06-13T11:15:30.475Z,60.30
2018-06-13T11:16:30.469Z,60.87
2018-06-13T11:17:30.459Z,59.30
2018-06-13T11:18:30.449Z,59.69
2018-06-13T11:19:30.436Z,59.94
2018-06-13T11:20:30.437Z,60.33
2018-06-13T11:21:30.418Z,61.16
2018-06-13T11:22:30.409Z,61.65
2018-06-13T11:23:30.392Z,62.13
2018-06-13T11:24:30.388Z,60.78
2018-06-13T11:25:30.366Z,61.81
2018-06-13T11:26:30.360Z,62.48
2018-06-13T11:27:30.347Z,62.00
2018-06-13T11:28:30.341Z,62.10
2018-06-13T11:29:30.328Z,62.26
2018-06-13T11:30:30.321Z,62.77
2018-06-13T11:31:30.326Z,63.60
2018-06-13T11:32:30.293Z,63.12
2018-06-13T11:33:30.280Z,63.02
2018-06-13T11:34:30.274Z,63.22
2018-06-13T11:35:30.257Z,63.99
2018-06-13T11:36:30.248Z,64.18
2018-06-13T11:37:30.240Z,64.47
2018-06-13T11:38:30.228Z,64.95
2018-06-13T11:39:30.225Z,64.47
2018-06-13T11:40:30.203Z,64.28
2018-06-13T11:41:30.218Z,64.76
2018-06-13T11:42:30.176Z,64.69
2018-06-13T11:43:30.172Z,64.22
2018-06-13T11:44:30.161Z,64.22
2018-06-13T11:45:30.152Z,64.50
2018-06-13T11:46:30.133Z,63.15
2018-06-13T11:47:30.123Z,62.51
2018-06-13T11:48:30.119Z,62.51
2018-06-13T11:49:30.097Z,62.51
2018-06-13T11:50:30.091Z,62.71
2018-06-13T11:51:30.075Z,62.13
2018-06-13T11:52:30.065Z,61.87
2018-06-13T11:53:30.094Z,61.87
2018-06-13T11:54:30.049Z,62.35
2018-06-13T11:55:30.026Z,61.49
2018-06-13T11:56:30.029Z,61.58
2018-06-13T11:57:30.010Z,62.45
2018-06-13T11:58:30.003Z,63.02
2018-06-13T11:59:29.999Z,62.16
2018-06-13T12:00:30.017Z,61.77
2018-06-13T12:01:29.968Z,62.45
2018-06-13T12:02:29.952Z,62.45
2018-06-13T12:03:30.059Z,62.35
2018-06-13T12:04:29.933Z,60.91
2018-06-13T12:05:30.038Z,59.94
2018-06-13T12:06:29.917Z,59.08
2018-06-13T12:07:29.943Z,59.75
2018-06-13T12:08:29.887Z,58.70
2018-06-13T12:09:29.939Z,57.54
2018-06-13T12:10:29.862Z,56.20
2018-06-13T12:11:29.862Z,56.48
2018-06-13T12:12:29.836Z,56.20
2018-06-13T12:13:29.826Z,56.99
2018-06-13T12:14:29.824Z,56.60
2018-06-13T12:15:29.912Z,57.02
2018-06-13T12:16:29.798Z,56.25
2018-06-13T12:17:29.831Z,55.22
2018-06-13T12:18:29.784Z,55.15
2018-06-13T12:19:29.813Z,55.08
2018-06-13T12:20:29.747Z,53.53
2018-06-13T12:21:29.747Z,54.82
2018-06-13T12:22:29.790Z,53.15
2018-06-13T12:23:29.717Z,54.69
2018-06-13T12:24:29.715Z,54.40
2018-06-13T12:25:29.708Z,54.57
2018-06-13T12:26:29.686Z,54.66
2018-06-13T12:27:29.686Z,55.73
2018-06-13T12:28:29.728Z,56.11
2018-06-13T12:29:29.663Z,56.30
2018-06-13T12:30:29.652Z,56.76
2018-06-13T12:31:29.641Z,57.43
2018-06-13T12:32:29.632Z,57.72
2018-06-13T12:33:29.617Z,57.12
2018-06-13T12:34:29.607Z,56.82
2018-06-13T12:35:29.597Z,56.95
2018-06-13T12:36:29.590Z,56.76
2018-06-13T12:37:29.582Z,56.88
2018-06-13T12:38:29.573Z,56.01
2018-06-13T12:39:29.562Z,54.57
2018-06-13T12:40:29.550Z,54.43
2018-06-13T12:41:29.541Z,53.63
2018-06-13T12:42:29.527Z,53.34
2018-06-13T12:43:29.520Z,53.05
2018-06-13T12:44:29.510Z,53.83
2018-06-13T12:45:29.556Z,53.85
2018-06-13T12:46:29.498Z,53.01
2018-06-13T12:47:29.479Z,51.41
2018-06-13T12:48:29.485Z,51.41
2018-06-13T12:49:29.456Z,53.05
2018-06-13T12:50:29.461Z,53.73
2018-06-13T12:51:29.450Z,53.61
2018-06-13T12:52:29.441Z,53.51